Key Field Meridian US
ICAO: KMEI
IATA: MEI
Category: Medium
Scheduled Services: Yes

Elevation: 297 ft
TransAlt. 18000 ft.

Airport Communications:
MERIDIAN APP/DEP:120.5
ATIS:126.475
CTAF:119.8
GCA:125.125
GND:121.9
ANG OPS COMD POST:29.23
GREENWOOD RDO:122.2
TWR:119.8
UNICOM:122.95

KMEI Zoom In..

If you have problems with the map follow the link
https://www.worldairports.se/pages/airport.php?
ICAO=KMEI

Runways:

(A) RW 01 length 10003 ft width 150 ft
ILS 110.10 / hdg 11

(B) RW 04 length 4599 ft width 150 ft
---- / hdg 46

(C) RW 19 length 10003 ft width 150 ft
ILS 111.35 / hdg 191

(D) RW 22 length 4599 ft width 150 ft
---- / hdg 226

Location; KMEI
Day. 20 / Time. 20.58 Zulu
* Altimeter: 29.90
* Temperature: I3° c. 32°f.
* Wind from: 270° Speed 04 kn.
Dewpoint: //° c.
Visibility: 10 Statute Miles.
Clouds: Few 900 ft.
Clouds: Scattered 2000 ft.
Clouds: Overcast 2700 ft.

KMEI 202058Z 27004KT 10SM FEW009 SCT020 OVC027 19/16 A2990 RMK AO2 SLP124 60017 I1000 I3/// T01890161 53001


Wind From 270°
Speed 04 kn.

 
 
jpsmedia.com for Web Design worldairports.se 2019   terms of use